sensor_id;sensor_type;location;lat;lon;timestamp;pressure;altitude;pressure_sealevel;temperature;humidity
68329;BME280;55182;56.864;60.554;2023-02-18T00:02:10;78349.84;;;-143.60;74.28
68329;BME280;55182;56.864;60.554;2023-02-18T00:04:35;78347.84;;;-143.60;73.64
68329;BME280;55182;56.864;60.554;2023-02-18T00:07:01;78335.78;;;-143.60;73.25
68329;BME280;55182;56.864;60.554;2023-02-18T00:09:26;78327.72;;;-143.60;73.15
68329;BME280;55182;56.864;60.554;2023-02-18T00:11:52;78325.72;;;-143.60;72.96
68329;BME280;55182;56.864;60.554;2023-02-18T00:14:17;78325.72;;;-143.60;72.70
68329;BME280;55182;56.864;60.554;2023-02-18T00:16:43;78321.69;;;-143.60;72.65
68329;BME280;55182;56.864;60.554;2023-02-18T00:19:11;78323.72;;;-143.60;72.65
68329;BME280;55182;56.864;60.554;2023-02-18T00:21:36;78325.72;;;-143.60;72.71
68329;BME280;55182;56.864;60.554;2023-02-18T00:24:03;78323.72;;;-143.60;72.73
68329;BME280;55182;56.864;60.554;2023-02-18T00:26:28;78329.75;;;-143.60;72.56
68329;BME280;55182;56.864;60.554;2023-02-18T00:28:54;78329.75;;;-143.60;72.56
68329;BME280;55182;56.864;60.554;2023-02-18T00:31:27;78325.72;;;-143.60;72.42
68329;BME280;55182;56.864;60.554;2023-02-18T00:33:53;78329.75;;;-143.60;72.34
68329;BME280;55182;56.864;60.554;2023-02-18T00:36:19;78321.69;;;-143.60;72.34
68329;BME280;55182;56.864;60.554;2023-02-18T00:38:46;78319.69;;;-143.60;72.59
68329;BME280;55182;56.864;60.554;2023-02-18T00:41:12;78313.66;;;-143.60;72.52
68329;BME280;55182;56.864;60.554;2023-02-18T00:43:38;78305.63;;;-143.60;72.74
68329;BME280;55182;56.864;60.554;2023-02-18T00:46:04;78297.56;;;-143.60;72.86
68329;BME280;55182;56.864;60.554;2023-02-18T00:48:30;78297.56;;;-143.60;72.73
68329;BME280;55182;56.864;60.554;2023-02-18T00:50:56;78281.47;;;-143.60;72.83
68329;BME280;55182;56.864;60.554;2023-02-18T00:53:21;78283.50;;;-143.60;72.78
68329;BME280;55182;56.864;60.554;2023-02-18T00:55:47;78279.47;;;-143.60;72.68
68329;BME280;55182;56.864;60.554;2023-02-18T00:58:13;78277.47;;;-143.60;72.58
68329;BME280;55182;56.864;60.554;2023-02-18T01:00:39;78281.47;;;-143.60;72.68
68329;BME280;55182;56.864;60.554;2023-02-18T01:03:05;78281.47;;;-143.60;72.71
68329;BME280;55182;56.864;60.554;2023-02-18T01:05:31;78281.47;;;-143.60;72.60
68329;BME280;55182;56.864;60.554;2023-02-18T01:07:56;78273.44;;;-143.60;72.84
68329;BME280;55182;56.864;60.554;2023-02-18T01:10:22;78271.44;;;-143.60;73.23
68329;BME280;55182;56.864;60.554;2023-02-18T01:12:48;78269.41;;;-143.60;72.90
68329;BME280;55182;56.864;60.554;2023-02-18T01:15:14;78263.38;;;-143.60;72.97
68329;BME280;55182;56.864;60.554;2023-02-18T01:17:40;78261.38;;;-143.60;72.64
68329;BME280;55182;56.864;60.554;2023-02-18T01:20:06;78259.38;;;-143.60;72.56
68329;BME280;55182;56.864;60.554;2023-02-18T01:22:33;78261.38;;;-143.60;72.44
68329;BME280;55182;56.864;60.554;2023-02-18T01:24:59;78261.38;;;-143.60;72.28
68329;BME280;55182;56.864;60.554;2023-02-18T01:27:25;78261.38;;;-143.60;72.45
68329;BME280;55182;56.864;60.554;2023-02-18T01:29:50;78265.41;;;-143.60;72.18
68329;BME280;55182;56.864;60.554;2023-02-18T01:32:15;78265.41;;;-143.60;72.21
68329;BME280;55182;56.864;60.554;2023-02-18T01:34:41;78269.41;;;-143.60;72.28
68329;BME280;55182;56.864;60.554;2023-02-18T01:37:06;78273.44;;;-143.60;72.21
68329;BME280;55182;56.864;60.554;2023-02-18T01:39:34;78269.41;;;-143.60;72.33
68329;BME280;55182;56.864;60.554;2023-02-18T01:41:59;78277.47;;;-143.60;72.16
68329;BME280;55182;56.864;60.554;2023-02-18T01:44:25;78273.44;;;-143.60;72.61
68329;BME280;55182;56.864;60.554;2023-02-18T01:46:51;78281.47;;;-143.60;72.52
68329;BME280;55182;56.864;60.554;2023-02-18T01:51:50;78285.50;;;-143.60;72.63
68329;BME280;55182;56.864;60.554;2023-02-18T01:54:18;78289.53;;;-143.60;72.90
68329;BME280;55182;56.864;60.554;2023-02-18T01:56:56;78291.53;;;-143.60;73.08
68329;BME280;55182;56.864;60.554;2023-02-18T01:59:28;78301.59;;;-143.60;73.54
68329;BME280;55182;56.864;60.554;2023-02-18T02:01:55;78297.56;;;-143.60;73.82
68329;BME280;55182;56.864;60.554;2023-02-18T02:04:21;78297.56;;;-143.60;73.64
68329;BME280;55182;56.864;60.554;2023-02-18T02:06:47;78301.59;;;-143.60;73.62
68329;BME280;55182;56.864;60.554;2023-02-18T02:09:14;78297.56;;;-143.60;73.70
68329;BME280;55182;56.864;60.554;2023-02-18T02:12:07;78289.53;;;-143.60;73.55
68329;BME280;55182;56.864;60.554;2023-02-18T02:17:16;78269.41;;;-143.60;73.96
68329;BME280;55182;56.864;60.554;2023-02-18T02:35:43;78237.25;;;-143.60;73.36
68329;BME280;55182;56.864;60.554;2023-02-18T02:45:46;78237.25;;;-143.60;72.47
68329;BME280;55182;56.864;60.554;2023-02-18T02:53:27;78245.28;;;-143.60;72.52
68329;BME280;55182;56.864;60.554;2023-02-18T02:55:54;78239.25;;;-143.60;72.51
68329;BME280;55182;56.864;60.554;2023-02-18T02:58:19;78237.25;;;-143.60;72.78
68329;BME280;55182;56.864;60.554;2023-02-18T03:06:15;78245.28;;;-143.60;72.97
68329;BME280;55182;56.864;60.554;2023-02-18T03:11:17;78247.31;;;-143.60;72.99
68329;BME280;55182;56.864;60.554;2023-02-18T03:21:26;78239.25;;;-143.60;72.42
68329;BME280;55182;56.864;60.554;2023-02-18T03:24:07;78237.25;;;-143.60;72.19
68329;BME280;55182;56.864;60.554;2023-02-18T03:26:35;78239.25;;;-143.60;72.12
68329;BME280;55182;56.864;60.554;2023-02-18T03:29:05;78229.22;;;-143.60;72.31
68329;BME280;55182;56.864;60.554;2023-02-18T03:31:32;78225.19;;;-143.60;72.21
68329;BME280;55182;56.864;60.554;2023-02-18T03:34:01;78225.19;;;-143.60;72.17
68329;BME280;55182;56.864;60.554;2023-02-18T03:36:29;78213.13;;;-143.60;72.20
68329;BME280;55182;56.864;60.554;2023-02-18T03:38:58;78211.13;;;-143.60;71.87
68329;BME280;55182;56.864;60.554;2023-02-18T03:41:24;78209.09;;;-143.60;71.52
68329;BME280;55182;56.864;60.554;2023-02-18T03:43:50;78209.09;;;-143.60;71.63
68329;BME280;55182;56.864;60.554;2023-02-18T03:46:15;78205.09;;;-143.60;71.89
68329;BME280;55182;56.864;60.554;2023-02-18T03:48:42;78201.06;;;-143.60;71.85
68329;BME280;55182;56.864;60.554;2023-02-18T03:51:08;78195.03;;;-143.60;71.64
68329;BME280;55182;56.864;60.554;2023-02-18T03:53:33;78191.00;;;-143.60;71.32
68329;BME280;55182;56.864;60.554;2023-02-18T03:55:59;78195.03;;;-143.60;71.28
68329;BME280;55182;56.864;60.554;2023-02-18T03:58:24;78203.06;;;-143.60;71.13
68329;BME280;55182;56.864;60.554;2023-02-18T04:00:50;78199.06;;;-143.60;71.35
68329;BME280;55182;56.864;60.554;2023-02-18T04:03:15;78197.03;;;-143.60;71.44
68329;BME280;55182;56.864;60.554;2023-02-18T04:05:41;78189.00;;;-143.60;71.75
68329;BME280;55182;56.864;60.554;2023-02-18T04:08:06;78176.94;;;-143.60;71.79
68329;BME280;55182;56.864;60.554;2023-02-18T04:10:32;78172.91;;;-143.60;72.03
68329;BME280;55182;56.864;60.554;2023-02-18T04:12:57;78164.88;;;-143.60;71.87
68329;BME280;55182;56.864;60.554;2023-02-18T04:15:23;78162.88;;;-143.60;71.84
68329;BME280;55182;56.864;60.554;2023-02-18T04:17:49;78160.84;;;-143.60;71.42
68329;BME280;55182;56.864;60.554;2023-02-18T04:20:15;78158.84;;;-143.60;71.34
68329;BME280;55182;56.864;60.554;2023-02-18T04:22:40;78152.81;;;-143.60;71.29
68329;BME280;55182;56.864;60.554;2023-02-18T04:25:06;78152.81;;;-143.60;71.02
68329;BME280;55182;56.864;60.554;2023-02-18T04:27:31;78150.81;;;-143.60;70.94
68329;BME280;55182;56.864;60.554;2023-02-18T04:29:57;78152.81;;;-143.60;71.60
68329;BME280;55182;56.864;60.554;2023-02-18T04:32:22;78156.84;;;-143.60;71.53
68329;BME280;55182;56.864;60.554;2023-02-18T04:34:48;78148.78;;;-143.60;71.09
68329;BME280;55182;56.864;60.554;2023-02-18T04:37:13;78148.78;;;-143.60;71.16
68329;BME280;55182;56.864;60.554;2023-02-18T04:39:39;78150.81;;;-143.60;71.16
68329;BME280;55182;56.864;60.554;2023-02-18T04:42:04;78142.75;;;-143.60;71.08
68329;BME280;55182;56.864;60.554;2023-02-18T04:44:29;78132.72;;;-143.60;71.02
68329;BME280;55182;56.864;60.554;2023-02-18T04:46:55;78128.69;;;-143.60;70.48
68329;BME280;55182;56.864;60.554;2023-02-18T04:49:21;78120.66;;;-143.60;70.26
68329;BME280;55182;56.864;60.554;2023-02-18T04:51:46;78122.66;;;-143.60;70.02
68329;BME280;55182;56.864;60.554;2023-02-18T04:54:11;78132.72;;;-143.60;70.11
68329;BME280;55182;56.864;60.554;2023-02-18T04:56:37;78120.66;;;-143.60;70.34
68329;BME280;55182;56.864;60.554;2023-02-18T04:59:03;78130.69;;;-143.60;70.19
68329;BME280;55182;56.864;60.554;2023-02-18T05:01:28;78142.75;;;-143.60;70.40
68329;BME280;55182;56.864;60.554;2023-02-18T05:03:54;78142.75;;;-143.60;70.79
68329;BME280;55182;56.864;60.554;2023-02-18T05:06:19;78144.78;;;-143.60;70.71
68329;BME280;55182;56.864;60.554;2023-02-18T05:08:45;78130.69;;;-143.60;70.70
68329;BME280;55182;56.864;60.554;2023-02-18T05:11:10;78110.59;;;-143.60;70.53
68329;BME280;55182;56.864;60.554;2023-02-18T05:13:36;78088.47;;;-143.60;70.22
68329;BME280;55182;56.864;60.554;2023-02-18T05:16:01;78072.41;;;-143.60;70.26
68329;BME280;55182;56.864;60.554;2023-02-18T05:18:27;78056.31;;;-143.60;70.14
68329;BME280;55182;56.864;60.554;2023-02-18T05:20:52;78040.22;;;-143.60;69.93
68329;BME280;55182;56.864;60.554;2023-02-18T05:23:17;78024.16;;;-143.60;69.72
68329;BME280;55182;56.864;60.554;2023-02-18T05:25:43;78012.09;;;-143.60;69.12
68329;BME280;55182;56.864;60.554;2023-02-18T05:28:08;78004.03;;;-143.60;69.11
68329;BME280;55182;56.864;60.554;2023-02-18T05:30:34;78004.03;;;-143.60;68.61
68329;BME280;55182;56.864;60.554;2023-02-18T05:32:59;78002.03;;;-143.60;68.04
68329;BME280;55182;56.864;60.554;2023-02-18T05:35:25;77996.00;;;-143.60;67.91
68329;BME280;55182;56.864;60.554;2023-02-18T05:37:50;77996.00;;;-143.60;67.81
68329;BME280;55182;56.864;60.554;2023-02-18T05:40:16;77983.94;;;-143.60;68.03
68329;BME280;55182;56.864;60.554;2023-02-18T05:42:41;77961.81;;;-143.60;67.83
68329;BME280;55182;56.864;60.554;2023-02-18T05:45:06;77955.78;;;-143.60;67.39
68329;BME280;55182;56.864;60.554;2023-02-18T05:47:32;77953.78;;;-143.60;67.12
68329;BME280;55182;56.864;60.554;2023-02-18T05:49:57;77931.66;;;-143.60;67.32
68329;BME280;55182;56.864;60.554;2023-02-18T05:52:23;77921.63;;;-143.60;66.56
68329;BME280;55182;56.864;60.554;2023-02-18T05:54:48;77897.50;;;-143.60;66.37
68329;BME280;55182;56.864;60.554;2023-02-18T05:57:14;77887.44;;;-143.60;65.65
68329;BME280;55182;56.864;60.554;2023-02-18T05:59:39;77877.38;;;-143.60;65.41
68329;BME280;55182;56.864;60.554;2023-02-18T06:02:05;77857.28;;;-143.60;65.58
68329;BME280;55182;56.864;60.554;2023-02-18T06:04:31;77835.16;;;-143.60;65.44
68329;BME280;55182;56.864;60.554;2023-02-18T06:06:56;77819.09;;;-143.60;65.49
68329;BME280;55182;56.864;60.554;2023-02-18T06:09:22;77805.00;;;-143.60;64.60
68329;BME280;55182;56.864;60.554;2023-02-18T06:11:47;77794.97;;;-143.60;64.52
68329;BME280;55182;56.864;60.554;2023-02-18T06:14:12;77788.94;;;-143.60;64.63
68329;BME280;55182;56.864;60.554;2023-02-18T06:16:38;77778.88;;;-143.60;64.25
68329;BME280;55182;56.864;60.554;2023-02-18T06:19:04;77768.81;;;-143.60;63.89
68329;BME280;55182;56.864;60.554;2023-02-18T06:21:29;77758.78;;;-143.60;64.15
68329;BME280;55182;56.864;60.554;2023-02-18T06:23:54;77748.72;;;-143.60;63.93
68329;BME280;55182;56.864;60.554;2023-02-18T06:26:20;77738.69;;;-143.60;63.95
68329;BME280;55182;56.864;60.554;2023-02-18T06:28:46;77722.59;;;-143.60;63.58
68329;BME280;55182;56.864;60.554;2023-02-18T06:31:11;77708.53;;;-143.60;63.81
68329;BME280;55182;56.864;60.554;2023-02-18T06:33:36;77690.44;;;-143.60;63.55
68329;BME280;55182;56.864;60.554;2023-02-18T06:36:06;77670.31;;;-143.60;63.02
68329;BME280;55182;56.864;60.554;2023-02-18T06:38:32;77662.28;;;-143.60;62.77
68329;BME280;55182;56.864;60.554;2023-02-18T06:41:00;77662.28;;;-143.60;62.75
68329;BME280;55182;56.864;60.554;2023-02-18T06:43:26;77668.31;;;-143.60;62.85
68329;BME280;55182;56.864;60.554;2023-02-18T06:45:52;77670.31;;;-143.60;62.83
68329;BME280;55182;56.864;60.554;2023-02-18T06:48:17;77676.34;;;-143.60;62.99
68329;BME280;55182;56.864;60.554;2023-02-18T06:50:43;77690.44;;;-143.60;62.63
68329;BME280;55182;56.864;60.554;2023-02-18T06:53:09;77686.41;;;-143.60;62.83
68329;BME280;55182;56.864;60.554;2023-02-18T06:55:34;77694.44;;;-143.60;63.01
68329;BME280;55182;56.864;60.554;2023-02-18T06:58:00;77706.50;;;-143.60;63.34
68329;BME280;55182;56.864;60.554;2023-02-18T07:00:25;77698.47;;;-143.60;62.96
68329;BME280;55182;56.864;60.554;2023-02-18T07:02:50;77708.53;;;-143.60;63.34
68329;BME280;55182;56.864;60.554;2023-02-18T07:05:16;77708.53;;;-143.60;63.42
68329;BME280;55182;56.864;60.554;2023-02-18T07:07:41;77730.63;;;-143.60;63.03
68329;BME280;55182;56.864;60.554;2023-02-18T07:10:07;77738.69;;;-143.60;63.33
68329;BME280;55182;56.864;60.554;2023-02-18T07:12:32;77742.69;;;-143.60;63.31
68329;BME280;55182;56.864;60.554;2023-02-18T07:14:58;77750.72;;;-143.60;63.69
68329;BME280;55182;56.864;60.554;2023-02-18T07:17:23;77762.78;;;-143.60;63.41
68329;BME280;55182;56.864;60.554;2023-02-18T07:19:49;77754.75;;;-143.60;63.53
68329;BME280;55182;56.864;60.554;2023-02-18T07:22:14;77762.78;;;-143.60;64.35
68329;BME280;55182;56.864;60.554;2023-02-18T07:24:40;77748.72;;;-143.60;63.83
68329;BME280;55182;56.864;60.554;2023-02-18T07:27:05;77746.72;;;-143.60;64.08
68329;BME280;55182;56.864;60.554;2023-02-18T07:29:31;77736.66;;;-143.60;64.12
68329;BME280;55182;56.864;60.554;2023-02-18T07:31:56;77734.66;;;-143.60;64.02
68329;BME280;55182;56.864;60.554;2023-02-18T07:34:22;77724.59;;;-143.60;63.63
68329;BME280;55182;56.864;60.554;2023-02-18T07:36:47;77714.56;;;-143.60;63.63
68329;BME280;55182;56.864;60.554;2023-02-18T07:39:13;77702.50;;;-143.60;63.37
68329;BME280;55182;56.864;60.554;2023-02-18T07:41:38;77694.44;;;-143.60;63.91
68329;BME280;55182;56.864;60.554;2023-02-18T07:44:13;77698.47;;;-143.60;63.01
68329;BME280;55182;56.864;60.554;2023-02-18T07:46:42;77702.50;;;-143.60;63.40
68329;BME280;55182;56.864;60.554;2023-02-18T07:49:07;77694.44;;;-143.60;62.77
68329;BME280;55182;56.864;60.554;2023-02-18T07:51:33;77688.41;;;-143.60;62.28
68329;BME280;55182;56.864;60.554;2023-02-18T07:53:58;77682.38;;;-143.60;63.01
68329;BME280;55182;56.864;60.554;2023-02-18T07:56:24;77654.25;;;-143.60;62.75
68329;BME280;55182;56.864;60.554;2023-02-18T07:58:49;77662.28;;;-143.60;62.07
68329;BME280;55182;56.864;60.554;2023-02-18T08:01:15;77660.28;;;-143.60;62.46
68329;BME280;55182;56.864;60.554;2023-02-18T08:03:40;77652.22;;;-143.60;62.73
68329;BME280;55182;56.864;60.554;2023-02-18T08:06:06;77654.25;;;-143.60;63.09
68329;BME280;55182;56.864;60.554;2023-02-18T08:08:32;77654.25;;;-143.60;63.00
68329;BME280;55182;56.864;60.554;2023-02-18T08:10:59;77662.28;;;-143.60;62.91
68329;BME280;55182;56.864;60.554;2023-02-18T08:13:25;77662.28;;;-143.60;63.12
68329;BME280;55182;56.864;60.554;2023-02-18T08:15:52;77654.25;;;-143.60;63.05
68329;BME280;55182;56.864;60.554;2023-02-18T08:18:20;77648.22;;;-143.60;62.82
68329;BME280;55182;56.864;60.554;2023-02-18T08:20:46;77648.22;;;-143.60;62.88
68329;BME280;55182;56.864;60.554;2023-02-18T08:23:13;77646.19;;;-143.60;63.41
68329;BME280;55182;56.864;60.554;2023-02-18T08:25:39;77634.13;;;-143.60;62.63
68329;BME280;55182;56.864;60.554;2023-02-18T08:28:05;77626.09;;;-143.60;62.17
68329;BME280;55182;56.864;60.554;2023-02-18T08:30:30;77608.00;;;-143.60;62.15
68329;BME280;55182;56.864;60.554;2023-02-18T08:32:56;77577.84;;;-143.60;61.64
68329;BME280;55182;56.864;60.554;2023-02-18T08:35:22;77583.88;;;-143.60;60.88
68329;BME280;55182;56.864;60.554;2023-02-18T08:37:47;77581.88;;;-143.60;60.90
68329;BME280;55182;56.864;60.554;2023-02-18T08:40:13;77573.84;;;-143.60;60.88
68329;BME280;55182;56.864;60.554;2023-02-18T08:42:38;77571.81;;;-143.60;61.66
68329;BME280;55182;56.864;60.554;2023-02-18T08:45:04;77571.81;;;-143.60;61.03
68329;BME280;55182;56.864;60.554;2023-02-18T08:47:30;77561.78;;;-143.60;61.41
68329;BME280;55182;56.864;60.554;2023-02-18T08:49:56;77567.81;;;-143.60;61.49
68329;BME280;55182;56.864;60.554;2023-02-18T08:52:21;77573.84;;;-143.60;61.70
68329;BME280;55182;56.864;60.554;2023-02-18T08:54:47;77597.97;;;-143.60;61.66
68329;BME280;55182;56.864;60.554;2023-02-18T08:57:12;77599.97;;;-143.60;62.25
68329;BME280;55182;56.864;60.554;2023-02-18T08:59:38;77591.94;;;-143.60;62.29
68329;BME280;55182;56.864;60.554;2023-02-18T09:02:03;77581.88;;;-143.60;62.50
68329;BME280;55182;56.864;60.554;2023-02-18T09:04:29;77575.84;;;-143.60;62.75
68329;BME280;55182;56.864;60.554;2023-02-18T09:06:55;77571.81;;;-143.60;62.78
68329;BME280;55182;56.864;60.554;2023-02-18T09:09:20;77565.78;;;-143.60;62.34
68329;BME280;55182;56.864;60.554;2023-02-18T09:11:46;77573.84;;;-143.60;61.67
68329;BME280;55182;56.864;60.554;2023-02-18T09:14:12;77573.84;;;-143.60;61.92
68329;BME280;55182;56.864;60.554;2023-02-18T09:16:38;77573.84;;;-143.60;62.18
68329;BME280;55182;56.864;60.554;2023-02-18T09:19:03;77569.81;;;-143.60;62.15
68329;BME280;55182;56.864;60.554;2023-02-18T09:21:29;77561.78;;;-143.60;61.67
68329;BME280;55182;56.864;60.554;2023-02-18T09:23:54;77547.69;;;-143.60;62.03
68329;BME280;55182;56.864;60.554;2023-02-18T09:26:20;77541.66;;;-143.60;61.48
68329;BME280;55182;56.864;60.554;2023-02-18T09:28:46;77547.69;;;-143.60;61.38
68329;BME280;55182;56.864;60.554;2023-02-18T09:31:13;77551.72;;;-143.60;61.96
68329;BME280;55182;56.864;60.554;2023-02-18T09:33:40;77559.75;;;-143.60;62.28
68329;BME280;55182;56.864;60.554;2023-02-18T09:36:06;77557.75;;;-143.60;62.67
68329;BME280;55182;56.864;60.554;2023-02-18T09:38:32;77553.72;;;-143.60;62.60
68329;BME280;55182;56.864;60.554;2023-02-18T09:40:58;77545.69;;;-143.60;62.25
68329;BME280;55182;56.864;60.554;2023-02-18T09:43:39;77559.75;;;-143.60;62.36
68329;BME280;55182;56.864;60.554;2023-02-18T09:46:06;77565.78;;;-143.60;62.41
68329;BME280;55182;56.864;60.554;2023-02-18T09:48:34;77565.78;;;-143.60;61.96
68329;BME280;55182;56.864;60.554;2023-02-18T09:51:00;77565.78;;;-143.60;62.59
68329;BME280;55182;56.864;60.554;2023-02-18T09:53:26;77565.78;;;-143.60;62.78
68329;BME280;55182;56.864;60.554;2023-02-18T09:55:52;77545.69;;;-143.60;62.75
68329;BME280;55182;56.864;60.554;2023-02-18T09:58:20;77549.72;;;-143.60;62.54
68329;BME280;55182;56.864;60.554;2023-02-18T10:00:51;77545.69;;;-143.60;62.01
68329;BME280;55182;56.864;60.554;2023-02-18T10:03:19;77545.69;;;-143.60;61.83
68329;BME280;55182;56.864;60.554;2023-02-18T10:08:18;77557.75;;;-143.60;62.17
68329;BME280;55182;56.864;60.554;2023-02-18T10:10:45;77571.81;;;-143.60;62.51
68329;BME280;55182;56.864;60.554;2023-02-18T10:13:12;77577.84;;;-143.60;63.01
68329;BME280;55182;56.864;60.554;2023-02-18T10:15:38;77581.88;;;-143.60;63.32
68329;BME280;55182;56.864;60.554;2023-02-18T10:18:05;77587.91;;;-143.60;63.31
68329;BME280;55182;56.864;60.554;2023-02-18T10:20:39;77593.94;;;-143.60;63.36
68329;BME280;55182;56.864;60.554;2023-02-18T10:23:04;77599.97;;;-143.60;63.79
68329;BME280;55182;56.864;60.554;2023-02-18T10:25:30;77604.00;;;-143.60;63.83
68329;BME280;55182;56.864;60.554;2023-02-18T10:27:56;77608.00;;;-143.60;64.15
68329;BME280;55182;56.864;60.554;2023-02-18T10:30:24;77612.03;;;-143.60;64.27
68329;BME280;55182;56.864;60.554;2023-02-18T10:32:54;77620.06;;;-143.60;64.42
68329;BME280;55182;56.864;60.554;2023-02-18T10:40:58;77620.06;;;-143.60;64.60
68329;BME280;55182;56.864;60.554;2023-02-18T10:46:11;77634.13;;;-143.60;64.97
68329;BME280;55182;56.864;60.554;2023-02-18T10:51:11;77648.22;;;-143.60;65.16
68329;BME280;55182;56.864;60.554;2023-02-18T10:53:39;77646.19;;;-143.60;65.34
68329;BME280;55182;56.864;60.554;2023-02-18T10:56:06;77650.22;;;-143.60;65.13
68329;BME280;55182;56.864;60.554;2023-02-18T10:58:36;77646.19;;;-143.60;65.24
68329;BME280;55182;56.864;60.554;2023-02-18T11:01:06;77646.19;;;-143.60;65.17
68329;BME280;55182;56.864;60.554;2023-02-18T11:03:44;77640.16;;;-143.60;65.28
68329;BME280;55182;56.864;60.554;2023-02-18T11:08:47;77630.13;;;-143.60;64.47
68329;BME280;55182;56.864;60.554;2023-02-18T11:11:20;77620.06;;;-143.60;64.64
68329;BME280;55182;56.864;60.554;2023-02-18T11:13:51;77622.06;;;-143.60;64.70
68329;BME280;55182;56.864;60.554;2023-02-18T11:16:17;77616.06;;;-143.60;64.75
68329;BME280;55182;56.864;60.554;2023-02-18T11:18:45;77614.03;;;-143.60;64.82
68329;BME280;55182;56.864;60.554;2023-02-18T11:23:46;77610.00;;;-143.60;64.83
68329;BME280;55182;56.864;60.554;2023-02-18T11:26:13;77597.97;;;-143.60;64.91
68329;BME280;55182;56.864;60.554;2023-02-18T11:28:44;77593.94;;;-143.60;64.39
68329;BME280;55182;56.864;60.554;2023-02-18T11:31:14;77587.91;;;-143.60;64.28
68329;BME280;55182;56.864;60.554;2023-02-18T11:33:42;77581.88;;;-143.60;64.34
68329;BME280;55182;56.864;60.554;2023-02-18T11:36:20;77579.88;;;-143.60;64.51
68329;BME280;55182;56.864;60.554;2023-02-18T11:38:54;77583.88;;;-143.60;63.95
68329;BME280;55182;56.864;60.554;2023-02-18T11:41:21;77581.88;;;-143.60;64.25
68329;BME280;55182;56.864;60.554;2023-02-18T11:43:53;77581.88;;;-143.60;64.02
68329;BME280;55182;56.864;60.554;2023-02-18T11:46:20;77579.88;;;-143.60;64.23
68329;BME280;55182;56.864;60.554;2023-02-18T11:48:46;77577.84;;;-143.60;64.20
68329;BME280;55182;56.864;60.554;2023-02-18T11:51:19;77571.81;;;-143.60;63.94
68329;BME280;55182;56.864;60.554;2023-02-18T11:53:56;77565.78;;;-143.60;63.44
68329;BME280;55182;56.864;60.554;2023-02-18T11:56:22;77559.75;;;-143.60;63.11
68329;BME280;55182;56.864;60.554;2023-02-18T11:58:47;77553.72;;;-143.60;63.25
68329;BME280;55182;56.864;60.554;2023-02-18T12:01:18;77557.75;;;-143.60;62.96
68329;BME280;55182;56.864;60.554;2023-02-18T12:03:54;77559.75;;;-143.60;63.01
68329;BME280;55182;56.864;60.554;2023-02-18T12:06:28;77561.78;;;-143.60;63.02
68329;BME280;55182;56.864;60.554;2023-02-18T12:11:41;77565.78;;;-143.60;62.99
68329;BME280;55182;56.864;60.554;2023-02-18T12:14:09;77565.78;;;-143.60;63.55
68329;BME280;55182;56.864;60.554;2023-02-18T12:21:46;77577.84;;;-143.60;62.89
68329;BME280;55182;56.864;60.554;2023-02-18T12:32:16;77634.13;;;-143.60;64.12
68329;BME280;55182;56.864;60.554;2023-02-18T12:37:31;77662.28;;;-143.60;64.55
68329;BME280;55182;56.864;60.554;2023-02-18T12:42:38;77682.38;;;-143.60;65.18
68329;BME280;55182;56.864;60.554;2023-02-18T12:47:52;77688.41;;;-143.60;64.97
68329;BME280;55182;56.864;60.554;2023-02-18T12:55:31;77714.56;;;-143.60;65.76
68329;BME280;55182;56.864;60.554;2023-02-18T13:03:01;77752.75;;;-143.60;66.83
68329;BME280;55182;56.864;60.554;2023-02-18T13:13:30;77782.91;;;-143.60;67.42
68329;BME280;55182;56.864;60.554;2023-02-18T13:16:01;77798.97;;;-143.60;67.57
68329;BME280;55182;56.864;60.554;2023-02-18T13:18:31;77811.03;;;-143.60;67.94
68329;BME280;55182;56.864;60.554;2023-02-18T13:21:31;77815.06;;;-143.60;67.65
68329;BME280;55182;56.864;60.554;2023-02-18T13:26:18;77843.22;;;-143.60;68.40
68329;BME280;55182;56.864;60.554;2023-02-18T13:28:50;77845.22;;;-143.60;68.86
68329;BME280;55182;56.864;60.554;2023-02-18T13:38:50;77891.47;;;-143.60;69.53
68329;BME280;55182;56.864;60.554;2023-02-18T13:41:18;77893.47;;;-143.60;70.08
68329;BME280;55182;56.864;60.554;2023-02-18T13:43:44;77899.50;;;-143.60;70.24
68329;BME280;55182;56.864;60.554;2023-02-18T13:46:10;77905.53;;;-143.60;70.48
68329;BME280;55182;56.864;60.554;2023-02-18T13:48:39;77917.59;;;-143.60;70.44
68329;BME280;55182;56.864;60.554;2023-02-18T13:51:07;77925.63;;;-143.60;70.68
68329;BME280;55182;56.864;60.554;2023-02-18T13:53:36;77931.66;;;-143.60;70.72
68329;BME280;55182;56.864;60.554;2023-02-18T13:56:03;77939.72;;;-143.60;71.12
68329;BME280;55182;56.864;60.554;2023-02-18T14:01:05;77927.66;;;-143.60;70.88
68329;BME280;55182;56.864;60.554;2023-02-18T14:03:49;77927.66;;;-143.60;70.67
68329;BME280;55182;56.864;60.554;2023-02-18T14:06:19;77923.63;;;-143.60;70.54
68329;BME280;55182;56.864;60.554;2023-02-18T14:08:45;77923.63;;;-143.60;70.96
68329;BME280;55182;56.864;60.554;2023-02-18T14:16:05;77945.75;;;-143.60;71.46
68329;BME280;55182;56.864;60.554;2023-02-18T14:19:24;77947.75;;;-143.60;71.68
68329;BME280;55182;56.864;60.554;2023-02-18T14:21:18;77951.78;;;-143.60;71.97
68329;BME280;55182;56.864;60.554;2023-02-18T14:26:23;77975.91;;;-143.60;72.21
68329;BME280;55182;56.864;60.554;2023-02-18T14:28:52;77981.94;;;-143.60;72.70
68329;BME280;55182;56.864;60.554;2023-02-18T14:31:35;77987.97;;;-143.60;72.85
68329;BME280;55182;56.864;60.554;2023-02-18T14:34:06;77991.97;;;-143.60;73.07
68329;BME280;55182;56.864;60.554;2023-02-18T14:36:39;77998.00;;;-143.60;73.20
68329;BME280;55182;56.864;60.554;2023-02-18T14:44:23;78004.03;;;-143.60;73.57
68329;BME280;55182;56.864;60.554;2023-02-18T14:52:01;78014.09;;;-143.60;73.83